CheckWX is a tool to help pilots better visualize weather data.  It is not intended as a substitute for an official pre-flight weather briefing.

13:15:55 UTC

KHTS TAF
Tri-State / Milton J Ferguson Field Airport
Huntington, West Virginia, USA
KHTS 061720Z 0618/0718 VRB05KT P6SM FEW080 FM061900 00000KT P6SM VCTS SCT040CB FM062200 00000KT P6SM FEW150 FM071000 12001KT 5SM BR FEW120 FM071200 17002KT P6SM SCT150

Jul-6@
18:00 UTC

Jul-6 @ 18:00 UTC

Jul-6@
19:00 UTC

Jul-6 @ 19:00 UTC

TAF KHTS 061720Z 0618/0718 VRB05KT P6SM FEW080

Expired

Wind
  • Variable at 5 KTS
Cloud Levels
  • Few at 8,000' AGL

Jul-6@
19:00 UTC

Jul-6 @ 19:00 UTC

Jul-6@
22:00 UTC

Jul-6 @ 22:00 UTC

FM061900 00000KT P6SM VCTS SCT040CB

Expired

Conditions
Area Thunderstorm
Cloud Levels
  • Scattered at 4,000' AGL

Jul-6@
22:00 UTC

Jul-6 @ 22:00 UTC

Jul-7@
10:00 UTC

Jul-7 @ 10:00 UTC

FM062200 00000KT P6SM FEW150

Expired

Cloud Levels
  • Few at 15,000' AGL

Jul-7@
10:00 UTC

Jul-7 @ 10:00 UTC

Jul-7@
12:00 UTC

Jul-7 @ 12:00 UTC

FM071000 12001KT 5SM BR FEW120

Expired

Wind
  • 120° at 1 KTS
Conditions
Mist
Cloud Levels
  • Few at 12,000' AGL

Jul-7@
12:00 UTC

Jul-7 @ 12:00 UTC

Jul-7@
18:00 UTC

Jul-7 @ 18:00 UTC

FM071200 17002KT P6SM SCT150

From

From Standard forecast or significant change

Wind
  • 170° at 2 KTS
Cloud Levels
  • Scattered at 15,000' AGL